createdAt,value
2019-04-04T00:01:48.819Z,6.87
2019-04-04T00:04:17.491Z,9.60
2019-04-04T00:06:46.013Z,9.63
2019-04-04T00:09:14.888Z,7.77
2019-04-04T00:11:43.936Z,8.50
2019-04-04T00:14:13.954Z,9.57
2019-04-04T00:16:42.425Z,6.93
2019-04-04T00:19:11.103Z,11.73
2019-04-04T00:21:39.650Z,9.50
2019-04-04T00:24:09.056Z,9.33
2019-04-04T00:26:38.286Z,7.83
2019-04-04T00:29:07.117Z,9.40
2019-04-04T00:31:35.618Z,6.67
2019-04-04T00:34:04.743Z,9.13
2019-04-04T00:36:34.588Z,9.33
2019-04-04T00:39:05.312Z,8.90
2019-04-04T00:41:33.808Z,11.77
2019-04-04T00:44:02.365Z,9.13
2019-04-04T00:46:31.462Z,9.10
2019-04-04T00:49:04.543Z,7.93
2019-04-04T00:51:33.060Z,8.37
2019-04-04T00:54:01.514Z,7.70
2019-04-04T00:56:29.986Z,12.23
2019-04-04T00:58:58.830Z,8.00
2019-04-04T01:01:27.775Z,8.40
2019-04-04T01:03:56.277Z,8.70
2019-04-04T01:06:24.796Z,8.03
2019-04-04T01:08:53.310Z,10.77
2019-04-04T01:11:21.868Z,9.10
2019-04-04T01:13:50.342Z,8.27
2019-04-04T01:16:19.143Z,11.40
2019-04-04T01:18:47.942Z,8.63
2019-04-04T01:21:16.407Z,10.93
2019-04-04T01:23:44.983Z,7.60
2019-04-04T01:26:13.501Z,8.88
2019-04-04T01:28:42.361Z,9.10
2019-04-04T01:31:10.841Z,9.43
2019-04-04T01:33:39.300Z,8.47
2019-04-04T01:36:07.780Z,9.47
2019-04-04T01:38:36.510Z,9.87
2019-04-04T01:41:05.492Z,9.43
2019-04-04T01:43:33.970Z,8.85
2019-04-04T01:46:02.658Z,7.83
2019-04-04T01:48:31.194Z,7.37
2019-04-04T01:50:59.728Z,7.33
2019-04-04T01:53:30.132Z,9.40
2019-04-04T01:55:58.366Z,9.23
2019-04-04T01:58:26.921Z,10.57
2019-04-04T02:00:55.435Z,8.20
2019-04-04T02:03:23.895Z,7.47
2019-04-04T02:05:52.349Z,10.30
2019-04-04T02:08:20.906Z,8.67
2019-04-04T02:10:49.459Z,9.03
2019-04-04T02:13:17.929Z,8.53
2019-04-04T02:15:46.669Z,8.37
2019-04-04T02:18:34.721Z,8.33
2019-04-04T02:21:03.357Z,9.13
2019-04-04T02:23:32.201Z,11.43
2019-04-04T02:26:00.954Z,9.43
2019-04-04T02:28:29.594Z,7.50
2019-04-04T02:30:58.444Z,9.27
2019-04-04T02:33:27.016Z,9.23
2019-04-04T02:35:55.640Z,9.80
2019-04-04T02:38:27.072Z,10.70
2019-04-04T02:40:54.539Z,8.53
2019-04-04T02:43:27.426Z,9.53
2019-04-04T02:45:53.358Z,9.30
2019-04-04T02:48:24.483Z,12.33
2019-04-04T02:50:53.400Z,11.27
2019-04-04T02:53:21.888Z,9.23
2019-04-04T02:55:50.351Z,10.17
2019-04-04T02:58:18.959Z,9.28
2019-04-04T03:00:47.539Z,8.23
2019-04-04T03:03:16.197Z,10.00
2019-04-04T03:05:45.070Z,9.03
2019-04-04T03:08:13.883Z,10.28
2019-04-04T03:10:42.481Z,8.20
2019-04-04T03:13:11.012Z,10.13
2019-04-04T03:15:41.537Z,9.47
2019-04-04T03:18:10.554Z,10.43
2019-04-04T03:20:39.358Z,10.00
2019-04-04T03:23:07.821Z,9.13
2019-04-04T03:25:36.733Z,14.83
2019-04-04T03:28:05.761Z,14.40
2019-04-04T03:30:34.338Z,10.87
2019-04-04T03:33:03.542Z,9.60
2019-04-04T03:35:32.503Z,10.90
2019-04-04T03:38:01.039Z,11.47
2019-04-04T03:40:29.612Z,10.07
2019-04-04T03:42:58.161Z,8.63
2019-04-04T03:45:27.635Z,8.87
2019-04-04T03:47:56.563Z,8.70
2019-04-04T03:50:29.223Z,8.48
2019-04-04T03:52:55.599Z,8.27
2019-04-04T03:55:27.786Z,8.00
2019-04-04T03:57:56.157Z,8.43
2019-04-04T04:00:33.272Z,8.70
2019-04-04T04:03:01.916Z,8.25
2019-04-04T04:05:35.644Z,9.97
2019-04-04T04:08:01.679Z,10.25
2019-04-04T04:10:33.390Z,7.77
2019-04-04T04:13:00.469Z,8.57
2019-04-04T04:15:30.385Z,9.43
2019-04-04T04:17:59.296Z,11.87
2019-04-04T04:20:28.518Z,10.60
2019-04-04T04:23:00.244Z,9.10
2019-04-04T04:25:28.804Z,9.87
2019-04-04T04:27:57.277Z,11.43
2019-04-04T04:30:25.943Z,13.30
2019-04-04T04:32:57.034Z,10.73
2019-04-04T04:35:24.943Z,10.30
2019-04-04T04:37:53.856Z,16.63
2019-04-04T04:40:22.848Z,15.68
2019-04-04T04:42:51.474Z,11.37
2019-04-04T04:45:20.208Z,13.13
2019-04-04T04:47:49.023Z,9.73
2019-04-04T04:50:18.917Z,10.03
2019-04-04T04:52:47.639Z,10.20
2019-04-04T04:55:16.527Z,10.87
2019-04-04T04:57:45.010Z,10.03
2019-04-04T05:00:16.195Z,9.17
2019-04-04T05:02:45.078Z,9.47
2019-04-04T05:05:13.684Z,8.60
2019-04-04T05:07:42.145Z,10.67
2019-04-04T05:10:10.978Z,8.33
2019-04-04T05:12:39.447Z,10.40
2019-04-04T05:15:08.471Z,10.10
2019-04-04T05:17:56.416Z,8.30
2019-04-04T05:20:25.560Z,10.80
2019-04-04T05:22:55.403Z,11.67
2019-04-04T05:25:23.993Z,9.63
2019-04-04T05:27:52.545Z,9.53
2019-04-04T05:30:20.997Z,10.03
2019-04-04T05:32:50.005Z,11.97
2019-04-04T05:35:19.799Z,11.15
2019-04-04T05:37:48.282Z,10.90
2019-04-04T05:40:17.293Z,16.77
2019-04-04T05:42:46.118Z,9.67
2019-04-04T05:45:15.414Z,9.27
2019-04-04T05:47:43.963Z,8.63
2019-04-04T05:50:16.315Z,11.15
2019-04-04T05:52:43.637Z,8.78
2019-04-04T05:55:12.379Z,9.40
2019-04-04T05:57:41.188Z,8.33
2019-04-04T06:00:12.866Z,9.67
2019-04-04T06:02:43.195Z,11.97
2019-04-04T06:05:12.239Z,9.87
2019-04-04T06:07:40.698Z,10.47
2019-04-04T06:10:12.003Z,10.47
2019-04-04T06:12:40.298Z,10.83
2019-04-04T06:15:09.588Z,8.93
2019-04-04T06:17:39.122Z,9.60
2019-04-04T06:20:09.364Z,12.03
2019-04-04T06:22:37.884Z,9.23
2019-04-04T06:25:07.102Z,10.43
2019-04-04T06:27:35.673Z,12.60
2019-04-04T06:30:07.704Z,22.48
2019-04-04T06:32:38.814Z,11.67
2019-04-04T06:35:07.247Z,10.50
2019-04-04T06:37:38.390Z,13.70
2019-04-04T06:40:07.757Z,11.67
2019-04-04T06:42:37.143Z,12.57
2019-04-04T06:45:07.526Z,12.43
2019-04-04T06:47:36.128Z,9.53
2019-04-04T06:50:08.106Z,8.60
2019-04-04T06:52:36.461Z,13.07
2019-04-04T06:55:09.120Z,10.13
2019-04-04T06:57:37.709Z,9.83
2019-04-04T07:00:08.710Z,8.77
2019-04-04T07:02:37.340Z,10.03
2019-04-04T07:05:10.320Z,11.17
2019-04-04T07:07:37.719Z,15.57
2019-04-04T07:10:07.061Z,9.03
2019-04-04T07:12:37.816Z,9.30
2019-04-04T07:15:12.490Z,10.27
2019-04-04T07:17:41.169Z,12.00
2019-04-04T07:20:12.162Z,15.47
2019-04-04T07:22:40.785Z,9.53
2019-04-04T07:25:09.864Z,10.30
2019-04-04T07:27:38.416Z,11.20
2019-04-04T07:30:07.629Z,10.13
2019-04-04T07:32:36.680Z,9.67
2019-04-04T07:35:07.399Z,10.60
2019-04-04T07:37:35.873Z,12.37
2019-04-04T07:40:07.212Z,13.48
2019-04-04T07:42:35.711Z,9.83
2019-04-04T07:45:06.522Z,17.00
2019-04-04T07:47:35.506Z,10.40
2019-04-04T07:50:05.779Z,9.47
2019-04-04T07:52:34.653Z,11.97
2019-04-04T07:55:03.636Z,10.53
2019-04-04T07:57:32.612Z,13.43
2019-04-04T08:00:01.778Z,9.30
2019-04-04T08:02:30.326Z,15.80
2019-04-04T08:04:58.796Z,10.17
2019-04-04T08:07:27.274Z,12.20
2019-04-04T08:09:57.534Z,9.30
2019-04-04T08:12:26.058Z,8.83
2019-04-04T08:14:55.288Z,9.03
2019-04-04T08:17:23.826Z,8.43
2019-04-04T08:19:59.600Z,11.33
2019-04-04T08:22:22.985Z,14.30
2019-04-04T08:24:52.265Z,11.40
2019-04-04T08:27:21.186Z,10.43
2019-04-04T08:29:49.663Z,9.40
2019-04-04T08:32:18.123Z,9.80
2019-04-04T08:34:46.654Z,8.23
2019-04-04T08:37:15.203Z,8.93
2019-04-04T08:39:44.091Z,9.80
2019-04-04T08:42:12.687Z,7.70
2019-04-04T08:44:41.170Z,11.73
2019-04-04T08:47:09.770Z,8.87
2019-04-04T08:49:38.314Z,8.63
2019-04-04T08:52:16.457Z,7.93
2019-04-04T08:54:37.319Z,8.33
2019-04-04T08:57:05.943Z,15.23
2019-04-04T08:59:34.407Z,8.10
2019-04-04T09:02:02.936Z,7.63
2019-04-04T09:04:31.804Z,8.70
2019-04-04T09:07:00.265Z,6.93
2019-04-04T09:09:29.146Z,7.53
2019-04-04T09:11:57.825Z,8.57
2019-04-04T09:14:26.413Z,7.77
2019-04-04T09:16:55.021Z,7.53
2019-04-04T09:19:23.697Z,17.73
2019-04-04T09:21:52.240Z,7.57
2019-04-04T09:24:20.718Z,8.57
2019-04-04T09:26:49.325Z,6.73
2019-04-04T09:29:17.950Z,7.80
2019-04-04T09:31:46.410Z,7.47
2019-04-04T09:34:15.091Z,8.73
2019-04-04T09:36:43.561Z,7.70
2019-04-04T09:39:12.115Z,7.40
2019-04-04T09:41:40.930Z,8.03
2019-04-04T09:44:09.387Z,7.37
2019-04-04T09:46:39.615Z,6.27
2019-04-04T09:49:08.200Z,10.07
2019-04-04T09:51:36.664Z,7.67
2019-04-04T09:54:06.049Z,6.70
2019-04-04T09:56:53.923Z,13.73
2019-04-04T09:59:22.411Z,6.30
2019-04-04T10:01:51.071Z,6.37
2019-04-04T10:04:19.561Z,9.20
2019-04-04T10:06:48.153Z,8.13
2019-04-04T10:09:17.130Z,8.50
2019-04-04T10:11:45.670Z,8.67
2019-04-04T10:14:14.405Z,8.97
2019-04-04T10:16:43.171Z,7.33
2019-04-04T10:19:11.796Z,7.23
2019-04-04T10:21:40.582Z,8.70
2019-04-04T10:24:09.378Z,6.53
2019-04-04T10:26:57.293Z,8.40
2019-04-04T10:29:25.815Z,8.03
2019-04-04T10:31:54.269Z,6.43
2019-04-04T10:34:22.750Z,7.37
2019-04-04T10:36:51.666Z,8.50
2019-04-04T10:39:28.757Z,9.93
2019-04-04T10:41:50.665Z,7.60
2019-04-04T10:44:19.131Z,7.57
2019-04-04T10:46:47.619Z,8.27
2019-04-04T10:49:16.107Z,14.50
2019-04-04T10:51:44.578Z,8.50
2019-04-04T10:54:13.211Z,9.27
2019-04-04T10:56:41.715Z,5.83
2019-04-04T10:59:10.243Z,8.70
2019-04-04T11:01:39.955Z,8.30
2019-04-04T11:04:08.450Z,9.00
2019-04-04T11:06:37.987Z,14.73
2019-04-04T11:09:07.710Z,10.53
2019-04-04T11:11:36.541Z,9.13
2019-04-04T11:14:05.698Z,8.27
2019-04-04T11:16:34.230Z,8.00
2019-04-04T11:19:02.710Z,16.60
2019-04-04T11:21:31.184Z,13.30
2019-04-04T11:23:59.649Z,13.73
2019-04-04T11:26:28.126Z,8.93
2019-04-04T11:28:57.150Z,6.83
2019-04-04T11:31:25.716Z,12.70
2019-04-04T11:33:54.179Z,7.83
2019-04-04T11:36:22.700Z,8.78
2019-04-04T11:38:51.561Z,5.90
2019-04-04T11:41:20.281Z,6.85
2019-04-04T11:43:49.142Z,7.67
2019-04-04T11:46:17.642Z,8.05
2019-04-04T11:48:49.058Z,9.00
2019-04-04T11:51:17.594Z,5.60
2019-04-04T11:53:46.073Z,9.83
2019-04-04T11:56:14.529Z,6.53
2019-04-04T11:58:43.003Z,6.83
2019-04-04T12:01:13.198Z,8.60
2019-04-04T12:03:45.271Z,9.13
2019-04-04T12:06:13.805Z,11.47
2019-04-04T12:08:42.604Z,7.30
2019-04-04T12:11:11.487Z,8.93
2019-04-04T12:13:40.330Z,8.90
2019-04-04T12:16:08.890Z,5.83
2019-04-04T12:18:37.697Z,6.17
2019-04-04T12:21:06.241Z,10.17
2019-04-04T12:23:34.720Z,7.77
2019-04-04T12:26:03.254Z,6.50
2019-04-04T12:28:31.773Z,13.73
2019-04-04T12:31:00.421Z,7.70
2019-04-04T12:33:29.519Z,8.03
2019-04-04T12:35:58.193Z,7.07
2019-04-04T12:38:26.711Z,5.63
2019-04-04T12:40:55.231Z,5.37
2019-04-04T12:43:24.403Z,11.37
2019-04-04T12:45:54.158Z,9.33
2019-04-04T12:48:22.687Z,9.40
2019-04-04T12:50:51.369Z,9.70
2019-04-04T12:53:19.844Z,5.25
2019-04-04T12:55:48.307Z,9.10
2019-04-04T12:58:16.773Z,13.20
2019-04-04T13:00:46.634Z,10.63
2019-04-04T13:03:15.414Z,7.72
2019-04-04T13:05:43.902Z,7.13
2019-04-04T13:08:12.397Z,12.27
2019-04-04T13:10:40.870Z,6.57
2019-04-04T13:13:09.607Z,6.60
2019-04-04T13:15:38.573Z,10.87
2019-04-04T13:18:07.025Z,8.63
2019-04-04T13:20:35.501Z,6.20
2019-04-04T13:23:04.711Z,7.00
2019-04-04T13:25:33.301Z,6.20
2019-04-04T13:28:01.774Z,5.47
2019-04-04T13:30:30.248Z,7.33
2019-04-04T13:32:58.756Z,9.30
2019-04-04T13:35:28.759Z,7.40
2019-04-04T13:37:57.445Z,9.90
2019-04-04T13:40:26.042Z,6.67
2019-04-04T13:42:54.810Z,9.43
2019-04-04T13:45:25.265Z,6.77
2019-04-04T13:47:53.491Z,5.80
2019-04-04T13:50:22.298Z,7.58
2019-04-04T13:52:50.788Z,7.53
2019-04-04T13:55:19.326Z,8.50
2019-04-04T13:57:48.268Z,7.83
2019-04-04T14:00:18.363Z,6.30
2019-04-04T14:02:47.137Z,6.70
2019-04-04T14:05:15.772Z,6.07
2019-04-04T14:07:44.381Z,6.20
2019-04-04T14:10:16.908Z,7.83
2019-04-04T14:12:44.255Z,7.80
2019-04-04T14:15:13.246Z,6.03
2019-04-04T14:17:43.727Z,7.37
2019-04-04T14:20:12.795Z,5.87
2019-04-04T14:22:41.483Z,7.17
2019-04-04T14:25:10.699Z,7.50
2019-04-04T14:27:39.271Z,8.47
2019-04-04T14:30:09.713Z,8.23
2019-04-04T14:32:38.558Z,7.03
2019-04-04T14:35:09.102Z,6.70
2019-04-04T14:37:37.615Z,6.17
2019-04-04T14:40:09.707Z,6.25
2019-04-04T14:42:39.230Z,6.03
2019-04-04T14:45:08.867Z,7.43
2019-04-04T14:47:38.970Z,7.40
2019-04-04T14:50:08.243Z,9.67
2019-04-04T14:52:41.705Z,6.97
2019-04-04T14:55:12.347Z,9.30
2019-04-04T14:57:41.069Z,6.57
2019-04-04T15:00:21.670Z,9.00
2019-04-04T15:02:50.302Z,7.53
2019-04-04T15:05:19.112Z,10.00
2019-04-04T15:07:48.035Z,10.45
2019-04-04T15:10:16.695Z,19.93
2019-04-04T15:12:45.162Z,9.43
2019-04-04T15:15:15.160Z,11.50
2019-04-04T15:17:43.816Z,12.20
2019-04-04T15:20:14.342Z,8.28
2019-04-04T15:22:42.823Z,8.43
2019-04-04T15:25:11.403Z,7.80
2019-04-04T15:27:39.869Z,9.37
2019-04-04T15:30:09.365Z,12.60
2019-04-04T15:32:37.885Z,10.87
2019-04-04T15:35:06.937Z,10.17
2019-04-04T15:37:35.474Z,9.40
2019-04-04T15:40:09.666Z,9.03
2019-04-04T15:42:38.589Z,11.30
2019-04-04T15:45:07.418Z,9.53
2019-04-04T15:47:35.977Z,7.80
2019-04-04T15:50:06.906Z,8.80
2019-04-04T15:52:35.933Z,11.50
2019-04-04T15:55:05.900Z,13.70
2019-04-04T15:57:34.524Z,18.03
2019-04-04T16:00:04.113Z,13.53
2019-04-04T16:02:34.347Z,11.87
2019-04-04T16:05:03.054Z,11.57
2019-04-04T16:07:31.524Z,11.33
2019-04-04T16:09:59.992Z,14.60
2019-04-04T16:12:28.572Z,15.30
2019-04-04T16:14:57.110Z,15.30
2019-04-04T16:17:25.573Z,15.77
2019-04-04T16:19:54.060Z,13.63
2019-04-04T16:22:22.616Z,15.80
2019-04-04T16:24:51.564Z,17.90
2019-04-04T16:27:20.194Z,17.50
2019-04-04T16:29:48.767Z,16.40
2019-04-04T16:32:17.298Z,17.10
2019-04-04T16:34:45.767Z,18.03
2019-04-04T16:37:14.538Z,19.63
2019-04-04T16:39:43.084Z,20.27
2019-04-04T16:42:11.763Z,20.17
2019-04-04T16:44:40.260Z,17.23
2019-04-04T16:47:08.742Z,18.43
2019-04-04T16:49:38.324Z,20.43
2019-04-04T16:52:07.609Z,18.70
2019-04-04T16:54:36.157Z,24.00
2019-04-04T16:57:04.811Z,30.97
2019-04-04T16:59:33.474Z,24.37
2019-04-04T17:02:01.959Z,23.80
2019-04-04T17:04:30.704Z,26.67
2019-04-04T17:06:59.269Z,25.60
2019-04-04T17:09:27.802Z,26.33
2019-04-04T17:11:56.430Z,25.77
2019-04-04T17:14:25.177Z,24.77
2019-04-04T17:16:53.645Z,32.30
2019-04-04T17:19:22.162Z,24.65
2019-04-04T17:21:52.083Z,30.70
2019-04-04T17:24:20.662Z,27.50
2019-04-04T17:26:49.117Z,27.60
2019-04-04T17:29:17.611Z,34.20
2019-04-04T17:31:46.830Z,31.53
2019-04-04T17:34:15.776Z,33.10
2019-04-04T17:36:44.458Z,33.20
2019-04-04T17:39:13.428Z,29.43
2019-04-04T17:41:41.926Z,33.25
2019-04-04T17:44:10.407Z,36.38
2019-04-04T17:46:39.058Z,35.60
2019-04-04T17:49:07.630Z,34.20
2019-04-04T17:51:36.614Z,34.17
2019-04-04T17:54:05.982Z,34.93
2019-04-04T17:56:35.076Z,40.10
2019-04-04T17:59:05.136Z,40.73
2019-04-04T18:01:34.422Z,42.07
2019-04-04T18:04:03.383Z,39.17
2019-04-04T18:06:32.588Z,46.03
2019-04-04T18:09:01.200Z,37.13
2019-04-04T18:11:29.687Z,44.67
2019-04-04T18:13:58.170Z,46.07
2019-04-04T18:16:26.774Z,40.37
2019-04-04T18:18:55.278Z,39.23
2019-04-04T18:21:23.960Z,44.17
2019-04-04T18:23:52.810Z,40.27
2019-04-04T18:26:21.321Z,41.35
2019-04-04T18:28:49.787Z,40.57
2019-04-04T18:31:18.340Z,44.13
2019-04-04T18:33:48.240Z,45.20
2019-04-04T18:36:17.301Z,40.10
2019-04-04T18:38:46.201Z,39.10
2019-04-04T18:41:14.844Z,42.10
2019-04-04T18:43:43.310Z,43.07
2019-04-04T18:46:11.921Z,39.23
2019-04-04T18:48:40.539Z,40.10
2019-04-04T18:51:09.009Z,44.47
2019-04-04T18:53:37.498Z,39.23
2019-04-04T18:56:06.261Z,37.53
2019-04-04T18:58:34.780Z,41.23
2019-04-04T19:01:03.254Z,40.40
2019-04-04T19:03:34.332Z,34.07
2019-04-04T19:06:02.967Z,38.10
2019-04-04T19:08:31.505Z,44.43
2019-04-04T19:11:00.030Z,38.70
2019-04-04T19:13:28.688Z,34.60
2019-04-04T19:15:58.614Z,37.20
2019-04-04T19:18:27.174Z,38.33
2019-04-04T19:21:14.970Z,34.33
2019-04-04T19:23:49.263Z,39.23
2019-04-04T19:26:13.953Z,42.80
2019-04-04T19:28:42.787Z,38.53
2019-04-04T19:31:11.324Z,40.13
2019-04-04T19:33:39.989Z,34.77
2019-04-04T19:36:08.464Z,39.93
2019-04-04T19:38:37.126Z,36.60
2019-04-04T19:41:06.660Z,35.45
2019-04-04T19:43:35.196Z,32.37
2019-04-04T19:46:03.740Z,33.77
2019-04-04T19:48:33.647Z,35.07
2019-04-04T19:51:02.126Z,30.70
2019-04-04T19:53:30.634Z,33.03
2019-04-04T19:55:59.400Z,32.23
2019-04-04T19:58:28.444Z,31.23
2019-04-04T20:00:58.514Z,30.00
2019-04-04T20:03:27.387Z,28.53
2019-04-04T20:05:55.919Z,28.97
2019-04-04T20:08:24.455Z,26.33
2019-04-04T20:10:53.738Z,27.00
2019-04-04T20:13:30.844Z,28.47
2019-04-04T20:15:52.511Z,29.80
2019-04-04T20:18:20.977Z,27.15
2019-04-04T20:20:49.508Z,27.20
2019-04-04T20:23:18.064Z,26.30
2019-04-04T20:25:46.680Z,25.20
2019-04-04T20:28:15.239Z,27.82
2019-04-04T20:30:43.787Z,28.00
2019-04-04T20:33:12.393Z,27.60
2019-04-04T20:35:40.883Z,27.27
2019-04-04T20:38:09.582Z,28.90
2019-04-04T20:40:38.256Z,30.77
2019-04-04T20:43:07.104Z,30.97
2019-04-04T20:45:35.917Z,29.37
2019-04-04T20:48:05.139Z,26.07
2019-04-04T20:50:33.613Z,27.13
2019-04-04T20:53:02.125Z,28.87
2019-04-04T20:55:30.938Z,28.10
2019-04-04T20:57:59.406Z,28.50
2019-04-04T21:00:28.361Z,30.10
2019-04-04T21:02:56.899Z,24.80
2019-04-04T21:05:25.463Z,27.80
2019-04-04T21:07:54.009Z,25.87
2019-04-04T21:10:22.626Z,28.67
2019-04-04T21:12:51.114Z,27.93
2019-04-04T21:15:21.131Z,29.67
2019-04-04T21:17:49.628Z,29.57
2019-04-04T21:20:18.442Z,24.18
2019-04-04T21:22:47.020Z,33.03
2019-04-04T21:25:15.683Z,24.63
2019-04-04T21:27:44.242Z,28.87
2019-04-04T21:30:12.858Z,25.02
2019-04-04T21:32:41.849Z,26.30
2019-04-04T21:35:10.412Z,31.03
2019-04-04T21:37:38.873Z,26.67
2019-04-04T21:40:07.622Z,31.47
2019-04-04T21:42:36.232Z,28.47
2019-04-04T21:45:07.125Z,29.63
2019-04-04T21:47:36.415Z,28.93
2019-04-04T21:50:08.154Z,30.30
2019-04-04T21:52:37.290Z,31.47
2019-04-04T21:55:07.399Z,29.50
2019-04-04T21:57:35.867Z,31.20
2019-04-04T22:00:06.918Z,32.00
2019-04-04T22:02:35.405Z,34.97
2019-04-04T22:05:07.084Z,30.88
2019-04-04T22:07:35.582Z,31.87
2019-04-04T22:10:06.864Z,37.78
2019-04-04T22:12:35.610Z,35.47
2019-04-04T22:15:06.791Z,43.37
2019-04-04T22:17:35.714Z,34.07
2019-04-04T22:20:06.575Z,36.17
2019-04-04T22:22:35.048Z,33.97
2019-04-04T22:25:04.982Z,36.70
2019-04-04T22:27:33.682Z,35.90
2019-04-04T22:30:02.543Z,38.07
2019-04-04T22:32:31.092Z,36.50
2019-04-04T22:34:59.633Z,43.20
2019-04-04T22:37:28.279Z,39.57
2019-04-04T22:39:56.837Z,34.67
2019-04-04T22:42:25.320Z,39.07
2019-04-04T22:44:53.877Z,40.07
2019-04-04T22:47:22.342Z,47.07
2019-04-04T22:49:51.459Z,35.00
2019-04-04T22:52:20.130Z,38.23
2019-04-04T22:54:48.663Z,42.20
2019-04-04T22:57:17.597Z,39.17
2019-04-04T22:59:46.078Z,45.20
2019-04-04T23:02:14.604Z,42.30
2019-04-04T23:04:43.244Z,40.43
2019-04-04T23:07:11.725Z,37.20
2019-04-04T23:09:40.582Z,42.87
2019-04-04T23:12:09.150Z,47.47
2019-04-04T23:14:47.514Z,46.07
2019-04-04T23:17:07.805Z,41.23
2019-04-04T23:19:36.358Z,43.20
2019-04-04T23:22:05.570Z,41.67
2019-04-04T23:24:34.341Z,40.00
2019-04-04T23:27:02.826Z,46.00
2019-04-04T23:29:31.299Z,41.53
2019-04-04T23:31:59.770Z,43.93
2019-04-04T23:34:28.268Z,48.33
2019-04-04T23:36:56.844Z,43.63
2019-04-04T23:39:25.381Z,46.33
2019-04-04T23:41:53.907Z,45.03
2019-04-04T23:44:22.391Z,43.47
2019-04-04T23:46:50.898Z,39.30
2019-04-04T23:49:19.442Z,46.80
2019-04-04T23:51:48.066Z,47.53
2019-04-04T23:54:16.601Z,47.43
2019-04-04T23:56:45.066Z,42.90
2019-04-04T23:59:13.872Z,44.43
